Corder, Missouri
Current Conditions -  °F | °C
As of 6:35 PM on Sunday 21 Dec 2014 (Local Time) from KRCM Reporting Station
Overcast Overcast  
Wind Chill: 35°   Ceiling: 4300
Heat Index: 41°   Visibility: 10mi
Dew Point: 37°   Wind: 10mph
Humidity: 87%   Direction: 140°SE
Pressure: 29.86"   Gusts: NA
Location:  39.1°N, 93.64°W
Report Text: KRCM 220035Z AUTO 14009KT 10SM OVC043 05/03 A2986 RMK AO2
Loading
Personal Weather Stations






























Interactive Weather Map New forecast layout! Learn more

10-Day Weather Forecast

Advertisements
Track Severe Weather on mobile